Bayville, New Jersey
Current Conditions -  °F | °C
As of 5:35 AM on Sunday 21 Dec 2014 (Local Time) from KMJX Reporting Station
Overcast Overcast  
Wind Chill: 28°   Ceiling: 12000
Heat Index: 28°   Visibility: 10mi
Dew Point: 25°   Wind: 0mph
Humidity: 86%   Direction: NA
Pressure: 30.29"   Gusts: NA
Location:  39.91°N, 74.16°W
Report Text: KMJX 211035Z AUTO 00000KT 10SM OVC120 M02/M04 A3029 RMK AO1
Loading
Personal Weather Stations






























Interactive Weather Map New forecast layout! Learn more

10-Day Weather Forecast

Advertisements
Track Severe Weather on mobile